sensor_id;sensor_type;location;lat;lon;timestamp;P1;durP1;ratioP1;P2;durP2;ratioP2
50932;SDS011;36921;49.006;9.292;2022-08-05T00:01:02;4.18;;;2.33;;
50932;SDS011;36921;49.006;9.292;2022-08-05T00:03:35;4.05;;;2.35;;
50932;SDS011;36921;49.006;9.292;2022-08-05T00:06:00;4.47;;;2.47;;
50932;SDS011;36921;49.006;9.292;2022-08-05T00:08:25;3.50;;;2.53;;
50932;SDS011;36921;49.006;9.292;2022-08-05T00:10:51;3.20;;;2.42;;
50932;SDS011;36921;49.006;9.292;2022-08-05T00:13:16;3.42;;;2.42;;
50932;SDS011;36921;49.006;9.292;2022-08-05T00:15:41;3.88;;;2.50;;
50932;SDS011;36921;49.006;9.292;2022-08-05T00:18:07;5.75;;;3.03;;
50932;SDS011;36921;49.006;9.292;2022-08-05T00:20:32;4.63;;;2.92;;
50932;SDS011;36921;49.006;9.292;2022-08-05T00:22:57;5.45;;;2.70;;
50932;SDS011;36921;49.006;9.292;2022-08-05T00:25:22;7.57;;;3.58;;
50932;SDS011;36921;49.006;9.292;2022-08-05T00:27:48;5.82;;;3.17;;
50932;SDS011;36921;49.006;9.292;2022-08-05T00:30:13;5.20;;;2.85;;
50932;SDS011;36921;49.006;9.292;2022-08-05T00:32:38;2.72;;;2.42;;
50932;SDS011;36921;49.006;9.292;2022-08-05T00:35:03;6.85;;;2.42;;
50932;SDS011;36921;49.006;9.292;2022-08-05T00:37:29;5.85;;;2.60;;
50932;SDS011;36921;49.006;9.292;2022-08-05T00:39:54;5.75;;;2.65;;
50932;SDS011;36921;49.006;9.292;2022-08-05T00:42:30;5.95;;;2.70;;
50932;SDS011;36921;49.006;9.292;2022-08-05T00:44:56;3.28;;;2.70;;
50932;SDS011;36921;49.006;9.292;2022-08-05T00:47:22;5.65;;;2.70;;
50932;SDS011;36921;49.006;9.292;2022-08-05T00:49:47;4.65;;;2.60;;
50932;SDS011;36921;49.006;9.292;2022-08-05T00:52:12;4.57;;;2.55;;
50932;SDS011;36921;49.006;9.292;2022-08-05T00:54:38;5.75;;;2.50;;
50932;SDS011;36921;49.006;9.292;2022-08-05T00:57:03;3.83;;;2.47;;
50932;SDS011;36921;49.006;9.292;2022-08-05T00:59:28;4.65;;;2.65;;
50932;SDS011;36921;49.006;9.292;2022-08-05T01:01:54;3.55;;;2.55;;
50932;SDS011;36921;49.006;9.292;2022-08-05T01:04:19;4.80;;;2.80;;
50932;SDS011;36921;49.006;9.292;2022-08-05T01:06:46;5.40;;;2.67;;
50932;SDS011;36921;49.006;9.292;2022-08-05T01:09:11;4.38;;;2.47;;
50932;SDS011;36921;49.006;9.292;2022-08-05T01:11:36;5.07;;;2.70;;
50932;SDS011;36921;49.006;9.292;2022-08-05T01:14:13;6.13;;;2.40;;
50932;SDS011;36921;49.006;9.292;2022-08-05T01:16:53;5.28;;;2.83;;
50932;SDS011;36921;49.006;9.292;2022-08-05T01:30:52;2.70;;;2.30;;
50932;SDS011;36921;49.006;9.292;2022-08-05T01:33:25;9.07;;;2.50;;
50932;SDS011;36921;49.006;9.292;2022-08-05T01:35:57;4.20;;;2.15;;
50932;SDS011;36921;49.006;9.292;2022-08-05T01:40:52;5.00;;;2.10;;
50932;SDS011;36921;49.006;9.292;2022-08-05T01:43:19;4.88;;;1.88;;
50932;SDS011;36921;49.006;9.292;2022-08-05T01:45:46;5.65;;;2.10;;
50932;SDS011;36921;49.006;9.292;2022-08-05T01:48:12;4.78;;;1.70;;
50932;SDS011;36921;49.006;9.292;2022-08-05T01:50:40;2.53;;;1.75;;
50932;SDS011;36921;49.006;9.292;2022-08-05T01:53:07;7.18;;;2.28;;
50932;SDS011;36921;49.006;9.292;2022-08-05T01:55:36;5.97;;;2.08;;
50932;SDS011;36921;49.006;9.292;2022-08-05T01:58:05;4.43;;;2.10;;
50932;SDS011;36921;49.006;9.292;2022-08-05T02:00:33;9.32;;;1.80;;
50932;SDS011;36921;49.006;9.292;2022-08-05T02:03:03;3.88;;;2.05;;
50932;SDS011;36921;49.006;9.292;2022-08-05T02:05:33;5.63;;;1.95;;
50932;SDS011;36921;49.006;9.292;2022-08-05T02:08:00;3.65;;;2.08;;
50932;SDS011;36921;49.006;9.292;2022-08-05T02:10:28;5.10;;;2.17;;
50932;SDS011;36921;49.006;9.292;2022-08-05T02:13:00;7.20;;;2.30;;
50932;SDS011;36921;49.006;9.292;2022-08-05T02:15:33;4.70;;;2.35;;
50932;SDS011;36921;49.006;9.292;2022-08-05T02:21:05;3.25;;;2.00;;
50932;SDS011;36921;49.006;9.292;2022-08-05T02:23:36;6.47;;;2.10;;
50932;SDS011;36921;49.006;9.292;2022-08-05T02:26:04;4.30;;;2.05;;
50932;SDS011;36921;49.006;9.292;2022-08-05T02:28:33;4.35;;;1.88;;
50932;SDS011;36921;49.006;9.292;2022-08-05T02:31:07;3.88;;;2.03;;
50932;SDS011;36921;49.006;9.292;2022-08-05T02:33:35;6.88;;;2.45;;
50932;SDS011;36921;49.006;9.292;2022-08-05T02:36:05;3.53;;;1.92;;
50932;SDS011;36921;49.006;9.292;2022-08-05T02:38:34;4.32;;;2.08;;
50932;SDS011;36921;49.006;9.292;2022-08-05T02:41:00;9.13;;;2.30;;
50932;SDS011;36921;49.006;9.292;2022-08-05T02:43:27;5.75;;;1.92;;
50932;SDS011;36921;49.006;9.292;2022-08-05T02:45:54;3.78;;;1.88;;
50932;SDS011;36921;49.006;9.292;2022-08-05T02:48:21;3.17;;;1.63;;
50932;SDS011;36921;49.006;9.292;2022-08-05T02:50:48;4.35;;;2.00;;
50932;SDS011;36921;49.006;9.292;2022-08-05T02:53:15;4.97;;;2.10;;
50932;SDS011;36921;49.006;9.292;2022-08-05T02:55:43;6.80;;;2.10;;
50932;SDS011;36921;49.006;9.292;2022-08-05T02:58:09;4.40;;;2.20;;
50932;SDS011;36921;49.006;9.292;2022-08-05T03:00:38;4.22;;;2.20;;
50932;SDS011;36921;49.006;9.292;2022-08-05T03:03:04;6.18;;;2.47;;
50932;SDS011;36921;49.006;9.292;2022-08-05T03:05:31;4.15;;;2.30;;
50932;SDS011;36921;49.006;9.292;2022-08-05T03:07:56;6.13;;;2.65;;
50932;SDS011;36921;49.006;9.292;2022-08-05T03:10:22;3.80;;;2.47;;
50932;SDS011;36921;49.006;9.292;2022-08-05T03:12:49;5.05;;;2.38;;
50932;SDS011;36921;49.006;9.292;2022-08-05T03:15:14;8.23;;;2.50;;
50932;SDS011;36921;49.006;9.292;2022-08-05T03:17:40;8.00;;;2.22;;
50932;SDS011;36921;49.006;9.292;2022-08-05T03:20:05;4.43;;;2.10;;
50932;SDS011;36921;49.006;9.292;2022-08-05T03:22:31;9.57;;;2.40;;
50932;SDS011;36921;49.006;9.292;2022-08-05T03:24:56;6.30;;;2.25;;
50932;SDS011;36921;49.006;9.292;2022-08-05T03:27:22;6.13;;;2.33;;
50932;SDS011;36921;49.006;9.292;2022-08-05T03:29:48;9.07;;;2.40;;
50932;SDS011;36921;49.006;9.292;2022-08-05T03:32:14;5.68;;;2.28;;
50932;SDS011;36921;49.006;9.292;2022-08-05T03:34:41;6.97;;;2.20;;
50932;SDS011;36921;49.006;9.292;2022-08-05T03:37:07;5.93;;;2.17;;
50932;SDS011;36921;49.006;9.292;2022-08-05T03:39:33;6.93;;;2.08;;
50932;SDS011;36921;49.006;9.292;2022-08-05T03:41:58;6.88;;;2.17;;
50932;SDS011;36921;49.006;9.292;2022-08-05T03:44:24;4.97;;;2.50;;
50932;SDS011;36921;49.006;9.292;2022-08-05T03:46:50;4.75;;;2.13;;
50932;SDS011;36921;49.006;9.292;2022-08-05T03:49:15;5.20;;;2.83;;
50932;SDS011;36921;49.006;9.292;2022-08-05T03:51:53;7.93;;;2.60;;
50932;SDS011;36921;49.006;9.292;2022-08-05T03:56:53;3.60;;;2.42;;
50932;SDS011;36921;49.006;9.292;2022-08-05T03:59:24;3.70;;;2.40;;
50932;SDS011;36921;49.006;9.292;2022-08-05T04:01:54;3.10;;;2.25;;
50932;SDS011;36921;49.006;9.292;2022-08-05T04:04:22;4.60;;;2.15;;
50932;SDS011;36921;49.006;9.292;2022-08-05T04:06:49;8.93;;;2.28;;
50932;SDS011;36921;49.006;9.292;2022-08-05T04:09:15;3.53;;;2.22;;
50932;SDS011;36921;49.006;9.292;2022-08-05T04:11:41;4.78;;;2.40;;
50932;SDS011;36921;49.006;9.292;2022-08-05T04:14:07;3.95;;;2.15;;
50932;SDS011;36921;49.006;9.292;2022-08-05T04:16:33;7.35;;;2.33;;
50932;SDS011;36921;49.006;9.292;2022-08-05T04:18:59;4.60;;;2.30;;
50932;SDS011;36921;49.006;9.292;2022-08-05T04:21:25;3.97;;;2.20;;
50932;SDS011;36921;49.006;9.292;2022-08-05T04:23:50;5.28;;;2.50;;
50932;SDS011;36921;49.006;9.292;2022-08-05T04:26:16;7.72;;;2.38;;
50932;SDS011;36921;49.006;9.292;2022-08-05T04:28:41;9.68;;;2.63;;
50932;SDS011;36921;49.006;9.292;2022-08-05T04:31:07;5.30;;;2.40;;
50932;SDS011;36921;49.006;9.292;2022-08-05T04:33:32;4.00;;;2.58;;
50932;SDS011;36921;49.006;9.292;2022-08-05T04:35:57;6.65;;;2.50;;
50932;SDS011;36921;49.006;9.292;2022-08-05T04:38:23;8.68;;;2.55;;
50932;SDS011;36921;49.006;9.292;2022-08-05T04:40:48;4.90;;;2.25;;
50932;SDS011;36921;49.006;9.292;2022-08-05T04:43:14;6.93;;;2.35;;
50932;SDS011;36921;49.006;9.292;2022-08-05T04:45:39;7.43;;;2.70;;
50932;SDS011;36921;49.006;9.292;2022-08-05T04:48:12;7.15;;;2.58;;
50932;SDS011;36921;49.006;9.292;2022-08-05T04:50:42;6.10;;;2.40;;
50932;SDS011;36921;49.006;9.292;2022-08-05T04:53:09;3.40;;;2.20;;
50932;SDS011;36921;49.006;9.292;2022-08-05T04:55:36;4.70;;;2.22;;
50932;SDS011;36921;49.006;9.292;2022-08-05T04:58:03;7.38;;;2.17;;
50932;SDS011;36921;49.006;9.292;2022-08-05T05:00:34;10.13;;;2.08;;
50932;SDS011;36921;49.006;9.292;2022-08-05T05:03:01;8.48;;;2.15;;
50932;SDS011;36921;49.006;9.292;2022-08-05T05:05:26;6.70;;;2.13;;
50932;SDS011;36921;49.006;9.292;2022-08-05T05:07:53;4.55;;;2.47;;
50932;SDS011;36921;49.006;9.292;2022-08-05T05:10:19;8.57;;;2.47;;
50932;SDS011;36921;49.006;9.292;2022-08-05T05:12:44;7.07;;;2.40;;
50932;SDS011;36921;49.006;9.292;2022-08-05T05:15:10;4.43;;;2.55;;
50932;SDS011;36921;49.006;9.292;2022-08-05T05:17:36;4.25;;;2.30;;
50932;SDS011;36921;49.006;9.292;2022-08-05T05:20:03;4.60;;;2.40;;
50932;SDS011;36921;49.006;9.292;2022-08-05T05:22:29;4.28;;;2.33;;
50932;SDS011;36921;49.006;9.292;2022-08-05T05:24:54;3.45;;;2.42;;
50932;SDS011;36921;49.006;9.292;2022-08-05T05:27:19;8.05;;;2.97;;
50932;SDS011;36921;49.006;9.292;2022-08-05T05:29:45;4.93;;;3.03;;
50932;SDS011;36921;49.006;9.292;2022-08-05T05:32:10;9.93;;;3.08;;
50932;SDS011;36921;49.006;9.292;2022-08-05T05:34:35;8.32;;;3.03;;
50932;SDS011;36921;49.006;9.292;2022-08-05T05:37:00;10.60;;;3.00;;
50932;SDS011;36921;49.006;9.292;2022-08-05T05:39:26;5.68;;;2.50;;
50932;SDS011;36921;49.006;9.292;2022-08-05T05:41:51;9.02;;;3.08;;
50932;SDS011;36921;49.006;9.292;2022-08-05T05:44:16;7.00;;;2.63;;
50932;SDS011;36921;49.006;9.292;2022-08-05T05:46:42;8.88;;;2.58;;
50932;SDS011;36921;49.006;9.292;2022-08-05T05:49:07;9.00;;;2.80;;
50932;SDS011;36921;49.006;9.292;2022-08-05T05:51:32;5.53;;;2.30;;
50932;SDS011;36921;49.006;9.292;2022-08-05T05:53:58;4.45;;;2.42;;
50932;SDS011;36921;49.006;9.292;2022-08-05T05:56:23;8.45;;;2.50;;
50932;SDS011;36921;49.006;9.292;2022-08-05T05:58:48;6.30;;;2.30;;
50932;SDS011;36921;49.006;9.292;2022-08-05T06:01:14;5.43;;;2.60;;
50932;SDS011;36921;49.006;9.292;2022-08-05T06:03:40;6.40;;;2.22;;
50932;SDS011;36921;49.006;9.292;2022-08-05T06:06:05;2.92;;;1.98;;
50932;SDS011;36921;49.006;9.292;2022-08-05T06:08:31;6.45;;;2.30;;
50932;SDS011;36921;49.006;9.292;2022-08-05T06:10:57;5.60;;;2.17;;
50932;SDS011;36921;49.006;9.292;2022-08-05T06:13:22;12.77;;;2.67;;
50932;SDS011;36921;49.006;9.292;2022-08-05T06:15:47;9.50;;;2.35;;
50932;SDS011;36921;49.006;9.292;2022-08-05T06:18:13;11.45;;;2.80;;
50932;SDS011;36921;49.006;9.292;2022-08-05T06:20:38;5.57;;;2.40;;
50932;SDS011;36921;49.006;9.292;2022-08-05T06:23:03;8.82;;;2.90;;
50932;SDS011;36921;49.006;9.292;2022-08-05T06:25:29;7.97;;;2.28;;
50932;SDS011;36921;49.006;9.292;2022-08-05T06:27:54;3.72;;;2.10;;
50932;SDS011;36921;49.006;9.292;2022-08-05T06:30:19;7.60;;;2.42;;
50932;SDS011;36921;49.006;9.292;2022-08-05T06:32:44;5.53;;;2.05;;
50932;SDS011;36921;49.006;9.292;2022-08-05T06:35:10;5.68;;;2.20;;
50932;SDS011;36921;49.006;9.292;2022-08-05T06:37:35;4.88;;;2.20;;
50932;SDS011;36921;49.006;9.292;2022-08-05T06:40:00;5.88;;;1.70;;
50932;SDS011;36921;49.006;9.292;2022-08-05T06:42:26;4.97;;;1.50;;
50932;SDS011;36921;49.006;9.292;2022-08-05T06:44:51;4.47;;;2.00;;
50932;SDS011;36921;49.006;9.292;2022-08-05T06:47:16;7.25;;;1.98;;
50932;SDS011;36921;49.006;9.292;2022-08-05T06:49:42;4.43;;;1.63;;
50932;SDS011;36921;49.006;9.292;2022-08-05T06:52:07;3.38;;;1.75;;
50932;SDS011;36921;49.006;9.292;2022-08-05T06:54:32;2.95;;;1.67;;
50932;SDS011;36921;49.006;9.292;2022-08-05T06:56:58;7.75;;;1.50;;
50932;SDS011;36921;49.006;9.292;2022-08-05T06:59:23;2.90;;;1.73;;
50932;SDS011;36921;49.006;9.292;2022-08-05T07:01:48;7.50;;;1.90;;
50932;SDS011;36921;49.006;9.292;2022-08-05T07:04:13;5.57;;;1.70;;
50932;SDS011;36921;49.006;9.292;2022-08-05T07:06:39;2.33;;;1.30;;
50932;SDS011;36921;49.006;9.292;2022-08-05T07:09:04;2.78;;;1.60;;
50932;SDS011;36921;49.006;9.292;2022-08-05T07:11:30;3.58;;;1.40;;
50932;SDS011;36921;49.006;9.292;2022-08-05T07:13:56;3.88;;;1.60;;
50932;SDS011;36921;49.006;9.292;2022-08-05T07:16:40;5.57;;;1.50;;
50932;SDS011;36921;49.006;9.292;2022-08-05T07:19:15;2.05;;;1.48;;
50932;SDS011;36921;49.006;9.292;2022-08-05T07:21:42;4.53;;;1.35;;
50932;SDS011;36921;49.006;9.292;2022-08-05T07:24:09;2.75;;;1.42;;
50932;SDS011;36921;49.006;9.292;2022-08-05T07:26:34;3.00;;;1.70;;
50932;SDS011;36921;49.006;9.292;2022-08-05T07:28:59;5.45;;;1.52;;
50932;SDS011;36921;49.006;9.292;2022-08-05T07:31:25;1.73;;;1.30;;
50932;SDS011;36921;49.006;9.292;2022-08-05T07:33:50;4.35;;;1.52;;
50932;SDS011;36921;49.006;9.292;2022-08-05T07:36:15;3.60;;;1.75;;
50932;SDS011;36921;49.006;9.292;2022-08-05T07:38:41;5.32;;;1.40;;
50932;SDS011;36921;49.006;9.292;2022-08-05T07:41:07;4.03;;;1.40;;
50932;SDS011;36921;49.006;9.292;2022-08-05T07:43:33;4.15;;;1.38;;
50932;SDS011;36921;49.006;9.292;2022-08-05T07:45:58;6.60;;;1.15;;
50932;SDS011;36921;49.006;9.292;2022-08-05T07:48:24;4.40;;;1.60;;
50932;SDS011;36921;49.006;9.292;2022-08-05T07:50:50;3.80;;;1.50;;
50932;SDS011;36921;49.006;9.292;2022-08-05T07:53:15;2.90;;;1.25;;
50932;SDS011;36921;49.006;9.292;2022-08-05T07:55:40;2.40;;;1.50;;
50932;SDS011;36921;49.006;9.292;2022-08-05T07:58:06;1.60;;;1.25;;
50932;SDS011;36921;49.006;9.292;2022-08-05T08:00:31;3.28;;;1.20;;
50932;SDS011;36921;49.006;9.292;2022-08-05T08:02:56;3.22;;;1.10;;
50932;SDS011;36921;49.006;9.292;2022-08-05T08:05:22;2.83;;;1.30;;
50932;SDS011;36921;49.006;9.292;2022-08-05T08:07:47;2.45;;;1.05;;
50932;SDS011;36921;49.006;9.292;2022-08-05T08:10:12;1.73;;;1.20;;
50932;SDS011;36921;49.006;9.292;2022-08-05T08:12:38;3.42;;;1.02;;
50932;SDS011;36921;49.006;9.292;2022-08-05T08:15:03;1.58;;;1.00;;
50932;SDS011;36921;49.006;9.292;2022-08-05T08:17:30;5.43;;;1.23;;
50932;SDS011;36921;49.006;9.292;2022-08-05T08:19:56;1.42;;;1.10;;
50932;SDS011;36921;49.006;9.292;2022-08-05T08:22:24;1.95;;;1.10;;
50932;SDS011;36921;49.006;9.292;2022-08-05T08:24:50;2.78;;;1.08;;
50932;SDS011;36921;49.006;9.292;2022-08-05T08:27:16;5.10;;;1.10;;
50932;SDS011;36921;49.006;9.292;2022-08-05T08:29:42;4.00;;;1.00;;
50932;SDS011;36921;49.006;9.292;2022-08-05T08:32:07;1.33;;;1.10;;
50932;SDS011;36921;49.006;9.292;2022-08-05T08:34:32;2.57;;;1.10;;
50932;SDS011;36921;49.006;9.292;2022-08-05T08:36:58;3.25;;;1.30;;
50932;SDS011;36921;49.006;9.292;2022-08-05T08:39:23;2.65;;;1.27;;
50932;SDS011;36921;49.006;9.292;2022-08-05T08:41:49;4.05;;;1.33;;
50932;SDS011;36921;49.006;9.292;2022-08-05T08:44:17;1.70;;;1.00;;
50932;SDS011;36921;49.006;9.292;2022-08-05T08:46:44;2.60;;;1.23;;
50932;SDS011;36921;49.006;9.292;2022-08-05T08:49:12;1.52;;;1.00;;
50932;SDS011;36921;49.006;9.292;2022-08-05T08:51:39;1.33;;;0.85;;
50932;SDS011;36921;49.006;9.292;2022-08-05T08:54:07;2.55;;;1.13;;
50932;SDS011;36921;49.006;9.292;2022-08-05T08:56:34;1.73;;;1.02;;
50932;SDS011;36921;49.006;9.292;2022-08-05T08:59:03;2.72;;;1.10;;
50932;SDS011;36921;49.006;9.292;2022-08-05T09:01:28;1.33;;;0.90;;
50932;SDS011;36921;49.006;9.292;2022-08-05T09:03:54;1.58;;;0.98;;
50932;SDS011;36921;49.006;9.292;2022-08-05T09:08:48;2.28;;;1.05;;
50932;SDS011;36921;49.006;9.292;2022-08-05T09:11:14;2.22;;;1.17;;
50932;SDS011;36921;49.006;9.292;2022-08-05T09:13:40;1.55;;;1.00;;
50932;SDS011;36921;49.006;9.292;2022-08-05T09:16:06;1.45;;;0.90;;
50932;SDS011;36921;49.006;9.292;2022-08-05T09:18:34;2.00;;;0.90;;
50932;SDS011;36921;49.006;9.292;2022-08-05T09:21:00;1.40;;;0.93;;
50932;SDS011;36921;49.006;9.292;2022-08-05T09:23:26;1.58;;;1.00;;
50932;SDS011;36921;49.006;9.292;2022-08-05T09:25:52;2.00;;;1.20;;
50932;SDS011;36921;49.006;9.292;2022-08-05T09:28:31;2.40;;;1.10;;
50932;SDS011;36921;49.006;9.292;2022-08-05T09:31:01;1.30;;;0.98;;
50932;SDS011;36921;49.006;9.292;2022-08-05T09:33:47;1.65;;;1.00;;
50932;SDS011;36921;49.006;9.292;2022-08-05T09:36:14;2.17;;;1.02;;
50932;SDS011;36921;49.006;9.292;2022-08-05T09:39:00;2.75;;;0.98;;
50932;SDS011;36921;49.006;9.292;2022-08-05T09:41:28;1.52;;;1.08;;
50932;SDS011;36921;49.006;9.292;2022-08-05T09:43:53;2.55;;;1.00;;
50932;SDS011;36921;49.006;9.292;2022-08-05T09:46:29;2.33;;;1.10;;
50932;SDS011;36921;49.006;9.292;2022-08-05T09:48:57;1.02;;;0.90;;
50932;SDS011;36921;49.006;9.292;2022-08-05T09:51:30;1.55;;;1.15;;
50932;SDS011;36921;49.006;9.292;2022-08-05T09:53:57;3.67;;;1.30;;
50932;SDS011;36921;49.006;9.292;2022-08-05T09:56:23;4.72;;;1.05;;
50932;SDS011;36921;49.006;9.292;2022-08-05T09:58:57;2.88;;;1.05;;
50932;SDS011;36921;49.006;9.292;2022-08-05T10:01:27;1.27;;;1.00;;
50932;SDS011;36921;49.006;9.292;2022-08-05T10:03:54;2.38;;;1.25;;
50932;SDS011;36921;49.006;9.292;2022-08-05T10:06:21;2.00;;;1.00;;
50932;SDS011;36921;49.006;9.292;2022-08-05T10:08:46;2.65;;;0.90;;
50932;SDS011;36921;49.006;9.292;2022-08-05T10:11:13;1.20;;;0.82;;
50932;SDS011;36921;49.006;9.292;2022-08-05T10:13:40;2.40;;;0.88;;
50932;SDS011;36921;49.006;9.292;2022-08-05T10:16:06;2.13;;;1.05;;
50932;SDS011;36921;49.006;9.292;2022-08-05T10:18:51;4.93;;;1.13;;
50932;SDS011;36921;49.006;9.292;2022-08-05T10:21:17;1.15;;;0.90;;
50932;SDS011;36921;49.006;9.292;2022-08-05T10:23:42;2.65;;;0.90;;
50932;SDS011;36921;49.006;9.292;2022-08-05T10:26:09;1.88;;;1.00;;
50932;SDS011;36921;49.006;9.292;2022-08-05T10:28:36;3.42;;;1.30;;
50932;SDS011;36921;49.006;9.292;2022-08-05T10:31:02;1.00;;;0.90;;
50932;SDS011;36921;49.006;9.292;2022-08-05T10:33:29;1.58;;;0.80;;
50932;SDS011;36921;49.006;9.292;2022-08-05T10:36:00;2.35;;;0.90;;
50932;SDS011;36921;49.006;9.292;2022-08-05T10:38:42;1.58;;;1.08;;
50932;SDS011;36921;49.006;9.292;2022-08-05T10:41:17;1.75;;;1.02;;
50932;SDS011;36921;49.006;9.292;2022-08-05T10:43:57;1.40;;;1.00;;
50932;SDS011;36921;49.006;9.292;2022-08-05T10:46:41;1.48;;;1.02;;
50932;SDS011;36921;49.006;9.292;2022-08-05T10:49:08;3.22;;;1.20;;
50932;SDS011;36921;49.006;9.292;2022-08-05T10:51:41;2.35;;;1.10;;
50932;SDS011;36921;49.006;9.292;2022-08-05T10:54:10;1.65;;;1.10;;
50932;SDS011;36921;49.006;9.292;2022-08-05T10:56:43;2.03;;;1.10;;
50932;SDS011;36921;49.006;9.292;2022-08-05T10:59:24;2.40;;;0.95;;
50932;SDS011;36921;49.006;9.292;2022-08-05T11:02:12;2.65;;;1.25;;
50932;SDS011;36921;49.006;9.292;2022-08-05T11:04:44;2.83;;;1.20;;
50932;SDS011;36921;49.006;9.292;2022-08-05T11:07:13;3.97;;;1.40;;
50932;SDS011;36921;49.006;9.292;2022-08-05T11:09:45;1.58;;;1.10;;
50932;SDS011;36921;49.006;9.292;2022-08-05T11:17:29;1.63;;;1.05;;
50932;SDS011;36921;49.006;9.292;2022-08-05T11:35:51;1.27;;;1.00;;
50932;SDS011;36921;49.006;9.292;2022-08-05T11:43:58;1.60;;;1.00;;
50932;SDS011;36921;49.006;9.292;2022-08-05T11:46:26;5.07;;;1.40;;
50932;SDS011;36921;49.006;9.292;2022-08-05T11:48:53;2.37;;;1.23;;
50932;SDS011;36921;49.006;9.292;2022-08-05T11:51:19;1.70;;;1.00;;
50932;SDS011;36921;49.006;9.292;2022-08-05T11:53:46;2.50;;;1.30;;
50932;SDS011;36921;49.006;9.292;2022-08-05T11:56:12;2.00;;;1.15;;
50932;SDS011;36921;49.006;9.292;2022-08-05T11:58:38;2.90;;;1.33;;
50932;SDS011;36921;49.006;9.292;2022-08-05T12:01:09;2.08;;;1.20;;
50932;SDS011;36921;49.006;9.292;2022-08-05T12:03:42;2.20;;;1.10;;
50932;SDS011;36921;49.006;9.292;2022-08-05T12:06:09;4.15;;;1.30;;
50932;SDS011;36921;49.006;9.292;2022-08-05T12:08:45;1.80;;;0.98;;
50932;SDS011;36921;49.006;9.292;2022-08-05T12:11:17;4.40;;;1.20;;
50932;SDS011;36921;49.006;9.292;2022-08-05T12:13:51;1.60;;;0.85;;
50932;SDS011;36921;49.006;9.292;2022-08-05T12:16:23;2.42;;;1.05;;
50932;SDS011;36921;49.006;9.292;2022-08-05T12:18:50;1.58;;;1.10;;
50932;SDS011;36921;49.006;9.292;2022-08-05T12:21:17;1.27;;;0.93;;
50932;SDS011;36921;49.006;9.292;2022-08-05T12:26:30;1.95;;;1.00;;
50932;SDS011;36921;49.006;9.292;2022-08-05T12:28:56;1.38;;;0.90;;
50932;SDS011;36921;49.006;9.292;2022-08-05T12:31:21;4.83;;;1.10;;
50932;SDS011;36921;49.006;9.292;2022-08-05T12:33:47;1.58;;;0.95;;
50932;SDS011;36921;49.006;9.292;2022-08-05T12:36:12;1.20;;;0.90;;
50932;SDS011;36921;49.006;9.292;2022-08-05T12:38:39;3.63;;;1.20;;
50932;SDS011;36921;49.006;9.292;2022-08-05T12:41:08;1.55;;;0.98;;
50932;SDS011;36921;49.006;9.292;2022-08-05T12:46:35;2.70;;;0.90;;
50932;SDS011;36921;49.006;9.292;2022-08-05T12:49:06;1.30;;;0.90;;
50932;SDS011;36921;49.006;9.292;2022-08-05T12:54:24;1.40;;;0.93;;
50932;SDS011;36921;49.006;9.292;2022-08-05T12:56:52;1.90;;;1.00;;
50932;SDS011;36921;49.006;9.292;2022-08-05T12:59:23;0.77;;;0.77;;
50932;SDS011;36921;49.006;9.292;2022-08-05T13:02:09;1.65;;;0.85;;
50932;SDS011;36921;49.006;9.292;2022-08-05T13:04:38;1.55;;;0.95;;
50932;SDS011;36921;49.006;9.292;2022-08-05T13:07:05;4.05;;;1.20;;
50932;SDS011;36921;49.006;9.292;2022-08-05T13:09:36;4.53;;;1.42;;
50932;SDS011;36921;49.006;9.292;2022-08-05T13:12:03;1.40;;;0.82;;
50932;SDS011;36921;49.006;9.292;2022-08-05T13:14:42;1.23;;;0.90;;
50932;SDS011;36921;49.006;9.292;2022-08-05T13:22:36;1.58;;;1.00;;
50932;SDS011;36921;49.006;9.292;2022-08-05T13:25:07;2.35;;;1.05;;
50932;SDS011;36921;49.006;9.292;2022-08-05T13:27:54;1.60;;;0.90;;
50932;SDS011;36921;49.006;9.292;2022-08-05T13:30:21;3.17;;;1.20;;
50932;SDS011;36921;49.006;9.292;2022-08-05T13:32:51;1.13;;;0.90;;
50932;SDS011;36921;49.006;9.292;2022-08-05T13:35:17;1.98;;;0.80;;
50932;SDS011;36921;49.006;9.292;2022-08-05T13:37:44;1.17;;;1.05;;
50932;SDS011;36921;49.006;9.292;2022-08-05T13:40:10;3.38;;;1.10;;
50932;SDS011;36921;49.006;9.292;2022-08-05T13:42:36;1.08;;;0.88;;
50932;SDS011;36921;49.006;9.292;2022-08-05T13:45:03;2.85;;;1.10;;
50932;SDS011;36921;49.006;9.292;2022-08-05T13:47:30;2.50;;;1.00;;
50932;SDS011;36921;49.006;9.292;2022-08-05T13:49:55;1.27;;;0.90;;
50932;SDS011;36921;49.006;9.292;2022-08-05T13:52:21;2.20;;;0.90;;
50932;SDS011;36921;49.006;9.292;2022-08-05T13:54:51;2.55;;;1.02;;
50932;SDS011;36921;49.006;9.292;2022-08-05T13:57:18;2.50;;;1.00;;
50932;SDS011;36921;49.006;9.292;2022-08-05T13:59:43;1.48;;;0.95;;
50932;SDS011;36921;49.006;9.292;2022-08-05T14:02:10;3.25;;;0.90;;
50932;SDS011;36921;49.006;9.292;2022-08-05T14:04:38;1.05;;;0.95;;
50932;SDS011;36921;49.006;9.292;2022-08-05T14:07:24;2.08;;;1.00;;
50932;SDS011;36921;49.006;9.292;2022-08-05T14:09:51;1.90;;;1.00;;
50932;SDS011;36921;49.006;9.292;2022-08-05T14:12:17;4.00;;;1.17;;
50932;SDS011;36921;49.006;9.292;2022-08-05T14:14:42;4.50;;;1.08;;
50932;SDS011;36921;49.006;9.292;2022-08-05T14:17:08;3.47;;;1.10;;
50932;SDS011;36921;49.006;9.292;2022-08-05T14:19:33;1.50;;;1.10;;
50932;SDS011;36921;49.006;9.292;2022-08-05T14:21:58;1.75;;;0.90;;
50932;SDS011;36921;49.006;9.292;2022-08-05T14:24:24;2.72;;;1.15;;
50932;SDS011;36921;49.006;9.292;2022-08-05T14:26:49;1.75;;;1.20;;
50932;SDS011;36921;49.006;9.292;2022-08-05T14:29:15;3.00;;;1.40;;
50932;SDS011;36921;49.006;9.292;2022-08-05T14:31:40;2.17;;;1.40;;
50932;SDS011;36921;49.006;9.292;2022-08-05T14:34:05;4.43;;;1.60;;
50932;SDS011;36921;49.006;9.292;2022-08-05T14:36:30;5.75;;;1.70;;
50932;SDS011;36921;49.006;9.292;2022-08-05T14:38:56;2.03;;;1.45;;
50932;SDS011;36921;49.006;9.292;2022-08-05T14:41:21;2.50;;;1.38;;
50932;SDS011;36921;49.006;9.292;2022-08-05T14:43:47;2.17;;;1.40;;
50932;SDS011;36921;49.006;9.292;2022-08-05T14:46:14;2.78;;;1.50;;
50932;SDS011;36921;49.006;9.292;2022-08-05T14:48:39;4.88;;;1.60;;
50932;SDS011;36921;49.006;9.292;2022-08-05T14:51:04;3.97;;;1.70;;
50932;SDS011;36921;49.006;9.292;2022-08-05T14:53:30;3.90;;;1.70;;
50932;SDS011;36921;49.006;9.292;2022-08-05T14:55:55;2.00;;;1.43;;
50932;SDS011;36921;49.006;9.292;2022-08-05T14:58:20;7.47;;;2.20;;
50932;SDS011;36921;49.006;9.292;2022-08-05T15:00:46;3.08;;;1.60;;
50932;SDS011;36921;49.006;9.292;2022-08-05T15:03:11;6.75;;;1.60;;
50932;SDS011;36921;49.006;9.292;2022-08-05T15:05:36;6.60;;;1.90;;
50932;SDS011;36921;49.006;9.292;2022-08-05T15:08:02;3.22;;;1.83;;
50932;SDS011;36921;49.006;9.292;2022-08-05T15:10:27;1.88;;;1.50;;
50932;SDS011;36921;49.006;9.292;2022-08-05T15:12:53;3.95;;;1.65;;
50932;SDS011;36921;49.006;9.292;2022-08-05T15:15:18;3.22;;;1.60;;
50932;SDS011;36921;49.006;9.292;2022-08-05T15:17:44;3.15;;;1.83;;
50932;SDS011;36921;49.006;9.292;2022-08-05T15:20:10;5.70;;;1.60;;
50932;SDS011;36921;49.006;9.292;2022-08-05T15:22:36;4.82;;;1.60;;
50932;SDS011;36921;49.006;9.292;2022-08-05T15:25:02;3.40;;;1.92;;
50932;SDS011;36921;49.006;9.292;2022-08-05T15:27:28;2.80;;;1.60;;
50932;SDS011;36921;49.006;9.292;2022-08-05T15:29:53;5.80;;;1.80;;
50932;SDS011;36921;49.006;9.292;2022-08-05T15:32:18;2.55;;;1.58;;
50932;SDS011;36921;49.006;9.292;2022-08-05T15:34:43;4.75;;;1.50;;
50932;SDS011;36921;49.006;9.292;2022-08-05T15:37:09;2.63;;;1.60;;
50932;SDS011;36921;49.006;9.292;2022-08-05T15:39:34;1.92;;;1.70;;
50932;SDS011;36921;49.006;9.292;2022-08-05T15:42:00;2.05;;;1.67;;
50932;SDS011;36921;49.006;9.292;2022-08-05T15:44:28;4.40;;;2.00;;
50932;SDS011;36921;49.006;9.292;2022-08-05T15:46:54;6.82;;;1.88;;
50932;SDS011;36921;49.006;9.292;2022-08-05T15:49:19;4.80;;;1.88;;
50932;SDS011;36921;49.006;9.292;2022-08-05T15:51:45;4.22;;;1.95;;